sensor_id;sensor_type;location;lat;lon;timestamp;P1;durP1;ratioP1;P2;durP2;ratioP2
29384;SDS011;16367;48.736;9.218;2023-04-07T00:01:54;11.95;;;5.25;;
29384;SDS011;16367;48.736;9.218;2023-04-07T00:03:57;11.60;;;4.82;;
29384;SDS011;16367;48.736;9.218;2023-04-07T00:06:00;11.48;;;5.05;;
29384;SDS011;16367;48.736;9.218;2023-04-07T00:08:04;11.70;;;4.78;;
29384;SDS011;16367;48.736;9.218;2023-04-07T00:10:08;11.38;;;5.13;;
29384;SDS011;16367;48.736;9.218;2023-04-07T00:12:11;11.00;;;4.65;;
29384;SDS011;16367;48.736;9.218;2023-04-07T00:14:14;10.25;;;4.05;;
29384;SDS011;16367;48.736;9.218;2023-04-07T00:16:17;11.63;;;5.30;;
29384;SDS011;16367;48.736;9.218;2023-04-07T00:18:19;11.48;;;4.85;;
29384;SDS011;16367;48.736;9.218;2023-04-07T00:20:22;9.88;;;4.28;;
29384;SDS011;16367;48.736;9.218;2023-04-07T00:22:25;11.23;;;5.05;;
29384;SDS011;16367;48.736;9.218;2023-04-07T00:24:30;12.18;;;4.97;;
29384;SDS011;16367;48.736;9.218;2023-04-07T00:26:35;10.52;;;4.82;;
29384;SDS011;16367;48.736;9.218;2023-04-07T00:28:37;12.60;;;5.20;;
29384;SDS011;16367;48.736;9.218;2023-04-07T00:30:40;11.35;;;4.72;;
29384;SDS011;16367;48.736;9.218;2023-04-07T00:32:43;9.48;;;4.28;;
29384;SDS011;16367;48.736;9.218;2023-04-07T00:34:46;11.25;;;4.53;;
29384;SDS011;16367;48.736;9.218;2023-04-07T00:36:49;10.80;;;4.78;;
29384;SDS011;16367;48.736;9.218;2023-04-07T00:38:52;10.77;;;4.35;;
29384;SDS011;16367;48.736;9.218;2023-04-07T00:41:00;12.20;;;5.57;;
29384;SDS011;16367;48.736;9.218;2023-04-07T00:43:02;16.25;;;5.78;;
29384;SDS011;16367;48.736;9.218;2023-04-07T00:45:06;12.13;;;5.32;;
29384;SDS011;16367;48.736;9.218;2023-04-07T00:47:10;13.40;;;5.30;;
29384;SDS011;16367;48.736;9.218;2023-04-07T00:49:14;10.88;;;5.45;;
29384;SDS011;16367;48.736;9.218;2023-04-07T00:51:18;13.82;;;5.15;;
29384;SDS011;16367;48.736;9.218;2023-04-07T00:53:22;13.57;;;5.65;;
29384;SDS011;16367;48.736;9.218;2023-04-07T00:55:25;11.75;;;5.47;;
29384;SDS011;16367;48.736;9.218;2023-04-07T00:57:30;12.35;;;5.13;;
29384;SDS011;16367;48.736;9.218;2023-04-07T00:59:33;12.20;;;5.00;;
29384;SDS011;16367;48.736;9.218;2023-04-07T01:01:38;11.90;;;5.70;;
29384;SDS011;16367;48.736;9.218;2023-04-07T01:03:47;13.13;;;5.72;;
29384;SDS011;16367;48.736;9.218;2023-04-07T01:05:57;13.18;;;5.55;;
29384;SDS011;16367;48.736;9.218;2023-04-07T01:08:05;12.55;;;5.63;;
29384;SDS011;16367;48.736;9.218;2023-04-07T01:10:15;13.13;;;6.10;;
29384;SDS011;16367;48.736;9.218;2023-04-07T01:12:24;14.05;;;6.10;;
29384;SDS011;16367;48.736;9.218;2023-04-07T01:14:41;15.13;;;6.38;;
29384;SDS011;16367;48.736;9.218;2023-04-07T01:16:48;12.88;;;5.50;;
29384;SDS011;16367;48.736;9.218;2023-04-07T01:18:56;11.85;;;5.40;;
29384;SDS011;16367;48.736;9.218;2023-04-07T01:21:03;12.95;;;5.38;;
29384;SDS011;16367;48.736;9.218;2023-04-07T01:23:09;10.55;;;4.72;;
29384;SDS011;16367;48.736;9.218;2023-04-07T01:25:26;11.63;;;5.35;;
29384;SDS011;16367;48.736;9.218;2023-04-07T01:27:41;12.18;;;5.53;;
29384;SDS011;16367;48.736;9.218;2023-04-07T01:29:51;12.80;;;5.60;;
29384;SDS011;16367;48.736;9.218;2023-04-07T01:31:55;10.55;;;4.82;;
29384;SDS011;16367;48.736;9.218;2023-04-07T01:34:01;13.10;;;5.57;;
29384;SDS011;16367;48.736;9.218;2023-04-07T01:36:05;11.93;;;5.10;;
29384;SDS011;16367;48.736;9.218;2023-04-07T01:38:13;13.23;;;5.63;;
29384;SDS011;16367;48.736;9.218;2023-04-07T01:40:17;12.70;;;5.68;;
29384;SDS011;16367;48.736;9.218;2023-04-07T01:42:22;12.43;;;5.68;;
29384;SDS011;16367;48.736;9.218;2023-04-07T01:44:27;13.23;;;6.22;;
29384;SDS011;16367;48.736;9.218;2023-04-07T01:46:32;14.43;;;5.47;;
29384;SDS011;16367;48.736;9.218;2023-04-07T01:48:35;14.57;;;6.95;;
29384;SDS011;16367;48.736;9.218;2023-04-07T01:50:39;12.68;;;5.97;;
29384;SDS011;16367;48.736;9.218;2023-04-07T01:52:42;15.48;;;6.20;;
29384;SDS011;16367;48.736;9.218;2023-04-07T01:54:46;12.60;;;5.97;;
29384;SDS011;16367;48.736;9.218;2023-04-07T01:56:50;15.10;;;6.30;;
29384;SDS011;16367;48.736;9.218;2023-04-07T01:58:53;13.52;;;5.68;;
29384;SDS011;16367;48.736;9.218;2023-04-07T02:00:56;13.48;;;6.05;;
29384;SDS011;16367;48.736;9.218;2023-04-07T02:03:02;14.15;;;6.00;;
29384;SDS011;16367;48.736;9.218;2023-04-07T02:05:11;15.73;;;6.25;;
29384;SDS011;16367;48.736;9.218;2023-04-07T02:07:17;14.13;;;6.18;;
29384;SDS011;16367;48.736;9.218;2023-04-07T02:09:23;11.55;;;5.05;;
29384;SDS011;16367;48.736;9.218;2023-04-07T02:11:31;14.65;;;6.45;;
29384;SDS011;16367;48.736;9.218;2023-04-07T02:13:35;13.02;;;6.03;;
29384;SDS011;16367;48.736;9.218;2023-04-07T02:15:39;13.95;;;5.95;;
29384;SDS011;16367;48.736;9.218;2023-04-07T02:17:45;14.50;;;5.88;;
29384;SDS011;16367;48.736;9.218;2023-04-07T02:19:51;16.70;;;6.20;;
29384;SDS011;16367;48.736;9.218;2023-04-07T02:21:55;14.23;;;6.15;;
29384;SDS011;16367;48.736;9.218;2023-04-07T02:23:59;15.15;;;6.57;;
29384;SDS011;16367;48.736;9.218;2023-04-07T02:26:02;14.88;;;6.50;;
29384;SDS011;16367;48.736;9.218;2023-04-07T02:28:05;14.50;;;6.82;;
29384;SDS011;16367;48.736;9.218;2023-04-07T02:30:08;12.05;;;5.60;;
29384;SDS011;16367;48.736;9.218;2023-04-07T02:32:12;14.45;;;5.72;;
29384;SDS011;16367;48.736;9.218;2023-04-07T02:34:15;13.50;;;5.63;;
29384;SDS011;16367;48.736;9.218;2023-04-07T02:36:19;13.75;;;6.40;;
29384;SDS011;16367;48.736;9.218;2023-04-07T02:38:21;14.35;;;6.15;;
29384;SDS011;16367;48.736;9.218;2023-04-07T02:40:24;14.35;;;6.05;;
29384;SDS011;16367;48.736;9.218;2023-04-07T02:42:27;13.10;;;6.45;;
29384;SDS011;16367;48.736;9.218;2023-04-07T02:44:30;16.20;;;6.72;;
29384;SDS011;16367;48.736;9.218;2023-04-07T02:46:32;13.30;;;5.72;;
29384;SDS011;16367;48.736;9.218;2023-04-07T02:48:35;16.17;;;5.90;;
29384;SDS011;16367;48.736;9.218;2023-04-07T02:50:38;14.95;;;7.10;;
29384;SDS011;16367;48.736;9.218;2023-04-07T02:52:43;12.85;;;5.72;;
29384;SDS011;16367;48.736;9.218;2023-04-07T02:54:46;12.52;;;5.60;;
29384;SDS011;16367;48.736;9.218;2023-04-07T02:56:49;15.90;;;6.30;;
29384;SDS011;16367;48.736;9.218;2023-04-07T02:58:51;13.18;;;5.43;;
29384;SDS011;16367;48.736;9.218;2023-04-07T03:00:54;15.43;;;6.00;;
29384;SDS011;16367;48.736;9.218;2023-04-07T03:02:57;13.88;;;5.88;;
29384;SDS011;16367;48.736;9.218;2023-04-07T03:05:00;14.57;;;6.05;;
29384;SDS011;16367;48.736;9.218;2023-04-07T03:07:04;14.95;;;7.00;;
29384;SDS011;16367;48.736;9.218;2023-04-07T03:09:08;14.23;;;6.85;;
29384;SDS011;16367;48.736;9.218;2023-04-07T03:11:11;13.95;;;6.13;;
29384;SDS011;16367;48.736;9.218;2023-04-07T03:13:14;14.02;;;6.53;;
29384;SDS011;16367;48.736;9.218;2023-04-07T03:15:19;14.65;;;6.53;;
29384;SDS011;16367;48.736;9.218;2023-04-07T03:17:22;15.38;;;6.53;;
29384;SDS011;16367;48.736;9.218;2023-04-07T03:19:25;13.77;;;7.00;;
29384;SDS011;16367;48.736;9.218;2023-04-07T03:21:27;13.02;;;5.57;;
29384;SDS011;16367;48.736;9.218;2023-04-07T03:23:32;14.15;;;6.40;;
29384;SDS011;16367;48.736;9.218;2023-04-07T03:25:36;13.85;;;6.50;;
29384;SDS011;16367;48.736;9.218;2023-04-07T03:27:39;12.95;;;6.72;;
29384;SDS011;16367;48.736;9.218;2023-04-07T03:29:41;14.52;;;6.32;;
29384;SDS011;16367;48.736;9.218;2023-04-07T03:31:44;14.98;;;6.70;;
29384;SDS011;16367;48.736;9.218;2023-04-07T03:33:47;17.27;;;7.20;;
29384;SDS011;16367;48.736;9.218;2023-04-07T03:35:50;15.50;;;6.68;;
29384;SDS011;16367;48.736;9.218;2023-04-07T03:37:53;14.60;;;6.45;;
29384;SDS011;16367;48.736;9.218;2023-04-07T03:39:56;14.23;;;6.68;;
29384;SDS011;16367;48.736;9.218;2023-04-07T03:42:00;14.82;;;6.13;;
29384;SDS011;16367;48.736;9.218;2023-04-07T03:44:03;15.45;;;6.70;;
29384;SDS011;16367;48.736;9.218;2023-04-07T03:46:06;13.77;;;7.03;;
29384;SDS011;16367;48.736;9.218;2023-04-07T03:48:09;13.65;;;6.53;;
29384;SDS011;16367;48.736;9.218;2023-04-07T03:50:12;13.90;;;6.35;;
29384;SDS011;16367;48.736;9.218;2023-04-07T03:52:15;14.25;;;6.88;;
29384;SDS011;16367;48.736;9.218;2023-04-07T03:54:18;12.65;;;5.68;;
29384;SDS011;16367;48.736;9.218;2023-04-07T03:56:20;15.30;;;6.50;;
29384;SDS011;16367;48.736;9.218;2023-04-07T03:58:26;15.07;;;7.15;;
29384;SDS011;16367;48.736;9.218;2023-04-07T04:00:29;15.40;;;6.53;;
29384;SDS011;16367;48.736;9.218;2023-04-07T04:02:34;16.13;;;7.40;;
29384;SDS011;16367;48.736;9.218;2023-04-07T04:04:37;14.00;;;7.05;;
29384;SDS011;16367;48.736;9.218;2023-04-07T04:06:40;13.45;;;6.63;;
29384;SDS011;16367;48.736;9.218;2023-04-07T04:08:42;15.80;;;7.93;;
29384;SDS011;16367;48.736;9.218;2023-04-07T04:10:45;14.95;;;7.28;;
29384;SDS011;16367;48.736;9.218;2023-04-07T04:12:48;14.95;;;7.22;;
29384;SDS011;16367;48.736;9.218;2023-04-07T04:14:52;15.93;;;7.15;;
29384;SDS011;16367;48.736;9.218;2023-04-07T04:16:55;14.88;;;6.43;;
29384;SDS011;16367;48.736;9.218;2023-04-07T04:18:58;13.10;;;6.13;;
29384;SDS011;16367;48.736;9.218;2023-04-07T04:21:01;16.20;;;7.10;;
29384;SDS011;16367;48.736;9.218;2023-04-07T04:23:04;16.33;;;6.85;;
29384;SDS011;16367;48.736;9.218;2023-04-07T04:25:07;15.07;;;6.32;;
29384;SDS011;16367;48.736;9.218;2023-04-07T04:27:10;17.33;;;6.70;;
29384;SDS011;16367;48.736;9.218;2023-04-07T04:29:13;16.65;;;6.25;;
29384;SDS011;16367;48.736;9.218;2023-04-07T04:31:17;16.73;;;6.60;;
29384;SDS011;16367;48.736;9.218;2023-04-07T04:33:20;15.60;;;6.45;;
29384;SDS011;16367;48.736;9.218;2023-04-07T04:35:23;15.00;;;7.10;;
29384;SDS011;16367;48.736;9.218;2023-04-07T04:37:26;15.52;;;6.60;;
29384;SDS011;16367;48.736;9.218;2023-04-07T04:39:29;15.65;;;7.65;;
29384;SDS011;16367;48.736;9.218;2023-04-07T04:41:32;17.88;;;7.40;;
29384;SDS011;16367;48.736;9.218;2023-04-07T04:43:34;16.38;;;6.88;;
29384;SDS011;16367;48.736;9.218;2023-04-07T04:45:37;18.10;;;7.05;;
29384;SDS011;16367;48.736;9.218;2023-04-07T04:47:41;16.45;;;7.47;;
29384;SDS011;16367;48.736;9.218;2023-04-07T04:49:45;16.45;;;7.47;;
29384;SDS011;16367;48.736;9.218;2023-04-07T04:51:47;15.07;;;7.45;;
29384;SDS011;16367;48.736;9.218;2023-04-07T04:53:50;17.50;;;6.55;;
29384;SDS011;16367;48.736;9.218;2023-04-07T04:55:53;14.30;;;6.90;;
29384;SDS011;16367;48.736;9.218;2023-04-07T04:57:56;13.88;;;7.07;;
29384;SDS011;16367;48.736;9.218;2023-04-07T04:59:59;15.10;;;6.63;;
29384;SDS011;16367;48.736;9.218;2023-04-07T05:02:02;17.45;;;6.82;;
29384;SDS011;16367;48.736;9.218;2023-04-07T05:04:06;14.82;;;7.15;;
29384;SDS011;16367;48.736;9.218;2023-04-07T05:06:09;18.27;;;7.80;;
29384;SDS011;16367;48.736;9.218;2023-04-07T05:08:12;15.32;;;7.05;;
29384;SDS011;16367;48.736;9.218;2023-04-07T05:10:15;18.85;;;8.52;;
29384;SDS011;16367;48.736;9.218;2023-04-07T05:12:18;16.48;;;7.40;;
29384;SDS011;16367;48.736;9.218;2023-04-07T05:14:20;13.18;;;6.72;;
29384;SDS011;16367;48.736;9.218;2023-04-07T05:16:23;14.27;;;7.70;;
29384;SDS011;16367;48.736;9.218;2023-04-07T05:18:26;14.85;;;6.55;;
29384;SDS011;16367;48.736;9.218;2023-04-07T05:20:30;15.00;;;6.97;;
29384;SDS011;16367;48.736;9.218;2023-04-07T05:22:33;15.27;;;7.32;;
29384;SDS011;16367;48.736;9.218;2023-04-07T05:24:36;15.65;;;6.90;;
29384;SDS011;16367;48.736;9.218;2023-04-07T05:26:39;19.77;;;7.15;;
29384;SDS011;16367;48.736;9.218;2023-04-07T05:28:41;17.60;;;7.32;;
29384;SDS011;16367;48.736;9.218;2023-04-07T05:30:44;15.13;;;7.63;;
29384;SDS011;16367;48.736;9.218;2023-04-07T05:32:47;16.20;;;7.90;;
29384;SDS011;16367;48.736;9.218;2023-04-07T05:34:50;15.38;;;6.78;;
29384;SDS011;16367;48.736;9.218;2023-04-07T05:36:54;14.40;;;7.10;;
29384;SDS011;16367;48.736;9.218;2023-04-07T05:38:57;14.50;;;7.40;;
29384;SDS011;16367;48.736;9.218;2023-04-07T05:40:59;15.27;;;6.88;;
29384;SDS011;16367;48.736;9.218;2023-04-07T05:43:02;16.30;;;6.95;;
29384;SDS011;16367;48.736;9.218;2023-04-07T05:45:06;14.23;;;7.60;;
29384;SDS011;16367;48.736;9.218;2023-04-07T05:47:09;16.08;;;7.15;;
29384;SDS011;16367;48.736;9.218;2023-04-07T05:49:12;15.35;;;7.70;;
29384;SDS011;16367;48.736;9.218;2023-04-07T05:51:20;16.42;;;6.68;;
29384;SDS011;16367;48.736;9.218;2023-04-07T05:53:24;13.68;;;7.47;;
29384;SDS011;16367;48.736;9.218;2023-04-07T05:55:27;14.10;;;5.95;;
29384;SDS011;16367;48.736;9.218;2023-04-07T05:57:30;20.10;;;7.78;;
29384;SDS011;16367;48.736;9.218;2023-04-07T05:59:33;14.60;;;6.80;;
29384;SDS011;16367;48.736;9.218;2023-04-07T06:01:37;15.68;;;7.13;;
29384;SDS011;16367;48.736;9.218;2023-04-07T06:03:40;13.57;;;6.43;;
29384;SDS011;16367;48.736;9.218;2023-04-07T06:05:44;17.20;;;7.75;;
29384;SDS011;16367;48.736;9.218;2023-04-07T06:07:47;17.45;;;7.20;;
29384;SDS011;16367;48.736;9.218;2023-04-07T06:09:51;15.15;;;6.88;;
29384;SDS011;16367;48.736;9.218;2023-04-07T06:11:54;13.40;;;7.07;;
29384;SDS011;16367;48.736;9.218;2023-04-07T06:13:57;13.68;;;6.65;;
29384;SDS011;16367;48.736;9.218;2023-04-07T06:16:00;17.00;;;7.72;;
29384;SDS011;16367;48.736;9.218;2023-04-07T06:18:03;14.70;;;6.78;;
29384;SDS011;16367;48.736;9.218;2023-04-07T06:20:06;12.75;;;6.55;;
29384;SDS011;16367;48.736;9.218;2023-04-07T06:22:09;15.90;;;7.13;;
29384;SDS011;16367;48.736;9.218;2023-04-07T06:24:12;15.20;;;7.38;;
29384;SDS011;16367;48.736;9.218;2023-04-07T06:26:16;16.20;;;6.63;;
29384;SDS011;16367;48.736;9.218;2023-04-07T06:28:19;14.70;;;7.15;;
29384;SDS011;16367;48.736;9.218;2023-04-07T06:30:22;13.73;;;7.00;;
29384;SDS011;16367;48.736;9.218;2023-04-07T06:32:25;15.80;;;7.20;;
29384;SDS011;16367;48.736;9.218;2023-04-07T06:34:28;15.13;;;7.53;;
29384;SDS011;16367;48.736;9.218;2023-04-07T06:36:31;13.90;;;6.53;;
29384;SDS011;16367;48.736;9.218;2023-04-07T06:38:34;15.85;;;6.90;;
29384;SDS011;16367;48.736;9.218;2023-04-07T06:40:37;13.43;;;6.30;;
29384;SDS011;16367;48.736;9.218;2023-04-07T06:42:41;13.20;;;6.78;;
29384;SDS011;16367;48.736;9.218;2023-04-07T06:44:44;12.77;;;6.05;;
29384;SDS011;16367;48.736;9.218;2023-04-07T06:46:47;14.02;;;6.25;;
29384;SDS011;16367;48.736;9.218;2023-04-07T06:48:53;14.80;;;7.18;;
29384;SDS011;16367;48.736;9.218;2023-04-07T06:50:56;14.45;;;6.55;;
29384;SDS011;16367;48.736;9.218;2023-04-07T06:52:58;13.88;;;6.60;;
29384;SDS011;16367;48.736;9.218;2023-04-07T06:55:01;15.60;;;6.78;;
29384;SDS011;16367;48.736;9.218;2023-04-07T06:57:04;11.93;;;6.32;;
29384;SDS011;16367;48.736;9.218;2023-04-07T06:59:13;13.55;;;6.45;;
29384;SDS011;16367;48.736;9.218;2023-04-07T07:01:16;12.30;;;6.22;;
29384;SDS011;16367;48.736;9.218;2023-04-07T07:03:18;15.07;;;6.75;;
29384;SDS011;16367;48.736;9.218;2023-04-07T07:05:22;13.20;;;6.32;;
29384;SDS011;16367;48.736;9.218;2023-04-07T07:07:24;14.68;;;7.18;;
29384;SDS011;16367;48.736;9.218;2023-04-07T07:09:27;14.40;;;7.15;;
29384;SDS011;16367;48.736;9.218;2023-04-07T07:11:30;14.48;;;7.15;;
29384;SDS011;16367;48.736;9.218;2023-04-07T07:13:33;13.57;;;6.80;;
29384;SDS011;16367;48.736;9.218;2023-04-07T07:15:37;14.02;;;6.57;;
29384;SDS011;16367;48.736;9.218;2023-04-07T07:17:40;13.77;;;6.90;;
29384;SDS011;16367;48.736;9.218;2023-04-07T07:19:43;15.88;;;5.90;;
29384;SDS011;16367;48.736;9.218;2023-04-07T07:21:45;11.88;;;6.05;;
29384;SDS011;16367;48.736;9.218;2023-04-07T07:23:48;14.32;;;6.57;;
29384;SDS011;16367;48.736;9.218;2023-04-07T07:25:51;13.98;;;6.38;;
29384;SDS011;16367;48.736;9.218;2023-04-07T07:27:54;15.07;;;6.85;;
29384;SDS011;16367;48.736;9.218;2023-04-07T07:29:56;11.43;;;5.57;;
29384;SDS011;16367;48.736;9.218;2023-04-07T07:32:00;11.80;;;6.22;;
29384;SDS011;16367;48.736;9.218;2023-04-07T07:34:03;13.50;;;5.97;;
29384;SDS011;16367;48.736;9.218;2023-04-07T07:36:06;15.70;;;6.63;;
29384;SDS011;16367;48.736;9.218;2023-04-07T07:38:09;13.60;;;6.05;;
29384;SDS011;16367;48.736;9.218;2023-04-07T07:40:12;15.38;;;7.40;;
29384;SDS011;16367;48.736;9.218;2023-04-07T07:42:15;13.02;;;6.35;;
29384;SDS011;16367;48.736;9.218;2023-04-07T07:44:18;15.50;;;6.55;;
29384;SDS011;16367;48.736;9.218;2023-04-07T07:46:21;12.95;;;6.18;;
29384;SDS011;16367;48.736;9.218;2023-04-07T07:48:27;13.18;;;6.18;;
29384;SDS011;16367;48.736;9.218;2023-04-07T07:50:30;13.77;;;6.68;;
29384;SDS011;16367;48.736;9.218;2023-04-07T07:52:34;13.75;;;5.80;;
29384;SDS011;16367;48.736;9.218;2023-04-07T07:54:37;11.95;;;6.18;;
29384;SDS011;16367;48.736;9.218;2023-04-07T07:56:40;12.02;;;5.70;;
29384;SDS011;16367;48.736;9.218;2023-04-07T07:58:43;11.23;;;5.18;;
29384;SDS011;16367;48.736;9.218;2023-04-07T08:00:46;11.23;;;5.70;;
29384;SDS011;16367;48.736;9.218;2023-04-07T08:02:48;12.45;;;6.28;;
29384;SDS011;16367;48.736;9.218;2023-04-07T08:04:53;13.43;;;6.22;;
29384;SDS011;16367;48.736;9.218;2023-04-07T08:06:55;12.73;;;6.15;;
29384;SDS011;16367;48.736;9.218;2023-04-07T08:08:58;12.30;;;6.30;;
29384;SDS011;16367;48.736;9.218;2023-04-07T08:11:01;11.77;;;5.63;;
29384;SDS011;16367;48.736;9.218;2023-04-07T08:13:04;13.73;;;6.88;;
29384;SDS011;16367;48.736;9.218;2023-04-07T08:15:07;10.20;;;5.15;;
29384;SDS011;16367;48.736;9.218;2023-04-07T08:17:10;12.30;;;5.30;;
29384;SDS011;16367;48.736;9.218;2023-04-07T08:19:13;12.48;;;5.80;;
29384;SDS011;16367;48.736;9.218;2023-04-07T08:21:17;12.10;;;5.60;;
29384;SDS011;16367;48.736;9.218;2023-04-07T08:23:21;11.27;;;5.68;;
29384;SDS011;16367;48.736;9.218;2023-04-07T08:25:23;12.07;;;6.20;;
29384;SDS011;16367;48.736;9.218;2023-04-07T08:27:27;9.63;;;4.80;;
29384;SDS011;16367;48.736;9.218;2023-04-07T08:29:30;9.90;;;4.88;;
29384;SDS011;16367;48.736;9.218;2023-04-07T08:31:33;8.20;;;4.65;;
29384;SDS011;16367;48.736;9.218;2023-04-07T08:33:36;8.43;;;4.80;;
29384;SDS011;16367;48.736;9.218;2023-04-07T08:35:38;8.40;;;4.97;;
29384;SDS011;16367;48.736;9.218;2023-04-07T08:37:43;9.20;;;4.88;;
29384;SDS011;16367;48.736;9.218;2023-04-07T08:39:45;7.40;;;4.22;;
29384;SDS011;16367;48.736;9.218;2023-04-07T08:41:48;7.88;;;4.47;;
29384;SDS011;16367;48.736;9.218;2023-04-07T08:43:52;8.55;;;4.30;;
29384;SDS011;16367;48.736;9.218;2023-04-07T08:45:56;9.02;;;4.75;;
29384;SDS011;16367;48.736;9.218;2023-04-07T08:47:59;9.05;;;4.40;;
29384;SDS011;16367;48.736;9.218;2023-04-07T08:50:11;11.10;;;5.03;;
29384;SDS011;16367;48.736;9.218;2023-04-07T08:52:14;9.27;;;4.55;;
29384;SDS011;16367;48.736;9.218;2023-04-07T08:54:19;7.90;;;3.90;;
29384;SDS011;16367;48.736;9.218;2023-04-07T08:56:23;7.97;;;4.32;;
29384;SDS011;16367;48.736;9.218;2023-04-07T08:58:26;9.65;;;4.43;;
29384;SDS011;16367;48.736;9.218;2023-04-07T09:00:29;9.55;;;3.85;;
29384;SDS011;16367;48.736;9.218;2023-04-07T09:02:33;9.48;;;4.10;;
29384;SDS011;16367;48.736;9.218;2023-04-07T09:04:37;9.55;;;4.43;;
29384;SDS011;16367;48.736;9.218;2023-04-07T09:06:39;8.90;;;3.83;;
29384;SDS011;16367;48.736;9.218;2023-04-07T09:08:42;7.05;;;3.85;;
29384;SDS011;16367;48.736;9.218;2023-04-07T09:10:46;8.15;;;4.15;;
29384;SDS011;16367;48.736;9.218;2023-04-07T09:12:49;7.80;;;4.18;;
29384;SDS011;16367;48.736;9.218;2023-04-07T09:14:52;7.43;;;4.00;;
29384;SDS011;16367;48.736;9.218;2023-04-07T09:16:55;8.68;;;3.85;;
29384;SDS011;16367;48.736;9.218;2023-04-07T09:18:58;6.75;;;4.07;;
29384;SDS011;16367;48.736;9.218;2023-04-07T09:21:01;6.82;;;3.42;;
29384;SDS011;16367;48.736;9.218;2023-04-07T09:23:05;8.70;;;3.83;;
29384;SDS011;16367;48.736;9.218;2023-04-07T09:25:09;7.90;;;4.38;;
29384;SDS011;16367;48.736;9.218;2023-04-07T09:27:14;6.68;;;3.50;;
29384;SDS011;16367;48.736;9.218;2023-04-07T09:29:19;7.63;;;4.20;;
29384;SDS011;16367;48.736;9.218;2023-04-07T09:31:22;8.25;;;4.13;;
29384;SDS011;16367;48.736;9.218;2023-04-07T09:33:44;7.93;;;3.58;;
29384;SDS011;16367;48.736;9.218;2023-04-07T09:35:50;7.20;;;4.18;;
29384;SDS011;16367;48.736;9.218;2023-04-07T09:38:00;8.93;;;4.15;;
29384;SDS011;16367;48.736;9.218;2023-04-07T09:40:05;10.00;;;3.97;;
29384;SDS011;16367;48.736;9.218;2023-04-07T09:42:09;8.90;;;3.65;;
29384;SDS011;16367;48.736;9.218;2023-04-07T09:44:13;7.70;;;3.60;;
29384;SDS011;16367;48.736;9.218;2023-04-07T09:46:16;10.02;;;4.90;;
29384;SDS011;16367;48.736;9.218;2023-04-07T09:48:20;11.40;;;3.67;;
29384;SDS011;16367;48.736;9.218;2023-04-07T09:50:32;8.15;;;3.78;;
29384;SDS011;16367;48.736;9.218;2023-04-07T09:52:49;7.75;;;4.07;;
29384;SDS011;16367;48.736;9.218;2023-04-07T09:54:53;9.70;;;4.35;;
29384;SDS011;16367;48.736;9.218;2023-04-07T09:56:57;7.75;;;3.80;;
29384;SDS011;16367;48.736;9.218;2023-04-07T09:59:01;9.10;;;4.45;;
29384;SDS011;16367;48.736;9.218;2023-04-07T10:01:07;7.13;;;3.70;;
29384;SDS011;16367;48.736;9.218;2023-04-07T10:03:11;7.88;;;3.67;;
29384;SDS011;16367;48.736;9.218;2023-04-07T10:05:14;9.27;;;4.25;;
29384;SDS011;16367;48.736;9.218;2023-04-07T10:07:17;7.75;;;3.83;;
29384;SDS011;16367;48.736;9.218;2023-04-07T10:09:20;8.02;;;3.92;;
29384;SDS011;16367;48.736;9.218;2023-04-07T10:11:25;9.10;;;4.10;;
29384;SDS011;16367;48.736;9.218;2023-04-07T10:13:28;7.55;;;3.72;;
29384;SDS011;16367;48.736;9.218;2023-04-07T10:15:31;7.78;;;3.50;;
29384;SDS011;16367;48.736;9.218;2023-04-07T10:17:35;7.88;;;3.55;;
29384;SDS011;16367;48.736;9.218;2023-04-07T10:19:40;11.45;;;5.07;;
29384;SDS011;16367;48.736;9.218;2023-04-07T10:21:43;10.15;;;4.70;;
29384;SDS011;16367;48.736;9.218;2023-04-07T10:23:48;9.77;;;4.25;;
29384;SDS011;16367;48.736;9.218;2023-04-07T10:25:58;8.07;;;3.80;;
29384;SDS011;16367;48.736;9.218;2023-04-07T10:28:03;10.13;;;4.03;;
29384;SDS011;16367;48.736;9.218;2023-04-07T10:30:12;8.05;;;3.50;;
29384;SDS011;16367;48.736;9.218;2023-04-07T10:32:17;7.55;;;3.72;;
29384;SDS011;16367;48.736;9.218;2023-04-07T10:37:08;10.85;;;4.40;;
29384;SDS011;16367;48.736;9.218;2023-04-07T10:39:20;8.15;;;3.75;;
29384;SDS011;16367;48.736;9.218;2023-04-07T10:41:31;8.27;;;3.88;;
29384;SDS011;16367;48.736;9.218;2023-04-07T10:43:35;9.02;;;3.92;;
29384;SDS011;16367;48.736;9.218;2023-04-07T10:45:51;6.95;;;3.47;;
29384;SDS011;16367;48.736;9.218;2023-04-07T10:48:08;6.55;;;3.42;;
29384;SDS011;16367;48.736;9.218;2023-04-07T10:50:17;8.85;;;4.13;;
29384;SDS011;16367;48.736;9.218;2023-04-07T10:52:21;10.02;;;4.15;;
29384;SDS011;16367;48.736;9.218;2023-04-07T10:54:25;10.23;;;4.22;;
29384;SDS011;16367;48.736;9.218;2023-04-07T10:59:13;9.05;;;4.05;;
29384;SDS011;16367;48.736;9.218;2023-04-07T11:01:17;8.88;;;4.28;;
29384;SDS011;16367;48.736;9.218;2023-04-07T11:03:21;7.75;;;3.72;;
29384;SDS011;16367;48.736;9.218;2023-04-07T11:05:26;7.72;;;3.55;;
29384;SDS011;16367;48.736;9.218;2023-04-07T11:07:48;8.38;;;3.50;;
29384;SDS011;16367;48.736;9.218;2023-04-07T11:10:07;9.63;;;4.55;;
29384;SDS011;16367;48.736;9.218;2023-04-07T11:12:20;9.35;;;4.55;;
29384;SDS011;16367;48.736;9.218;2023-04-07T11:14:24;9.85;;;3.88;;
29384;SDS011;16367;48.736;9.218;2023-04-07T11:16:38;8.05;;;3.70;;
29384;SDS011;16367;48.736;9.218;2023-04-07T11:18:43;7.53;;;3.90;;
29384;SDS011;16367;48.736;9.218;2023-04-07T11:20:51;8.13;;;3.72;;
29384;SDS011;16367;48.736;9.218;2023-04-07T11:22:58;10.38;;;4.30;;
29384;SDS011;16367;48.736;9.218;2023-04-07T11:25:01;6.68;;;3.55;;
29384;SDS011;16367;48.736;9.218;2023-04-07T11:27:04;10.45;;;4.20;;
29384;SDS011;16367;48.736;9.218;2023-04-07T11:29:08;11.32;;;4.13;;
29384;SDS011;16367;48.736;9.218;2023-04-07T11:31:19;8.07;;;3.80;;
29384;SDS011;16367;48.736;9.218;2023-04-07T11:33:24;6.35;;;2.60;;
29384;SDS011;16367;48.736;9.218;2023-04-07T11:35:28;4.95;;;1.95;;
29384;SDS011;16367;48.736;9.218;2023-04-07T11:37:32;7.85;;;2.42;;
29384;SDS011;16367;48.736;9.218;2023-04-07T11:39:35;5.35;;;2.10;;
29384;SDS011;16367;48.736;9.218;2023-04-07T11:41:44;6.60;;;2.10;;
29384;SDS011;16367;48.736;9.218;2023-04-07T11:43:48;6.18;;;2.10;;
29384;SDS011;16367;48.736;9.218;2023-04-07T11:46:07;6.43;;;2.60;;
29384;SDS011;16367;48.736;9.218;2023-04-07T11:48:26;7.30;;;1.90;;
29384;SDS011;16367;48.736;9.218;2023-04-07T11:50:36;5.95;;;1.77;;
29384;SDS011;16367;48.736;9.218;2023-04-07T11:52:42;5.65;;;1.70;;
29384;SDS011;16367;48.736;9.218;2023-04-07T11:54:46;5.88;;;1.90;;
29384;SDS011;16367;48.736;9.218;2023-04-07T11:56:50;4.47;;;1.45;;
29384;SDS011;16367;48.736;9.218;2023-04-07T11:58:55;5.15;;;1.80;;
29384;SDS011;16367;48.736;9.218;2023-04-07T12:01:00;3.88;;;1.70;;
29384;SDS011;16367;48.736;9.218;2023-04-07T12:03:09;4.63;;;1.08;;
29384;SDS011;16367;48.736;9.218;2023-04-07T12:05:15;5.53;;;1.35;;
29384;SDS011;16367;48.736;9.218;2023-04-07T12:07:18;5.20;;;1.80;;
29384;SDS011;16367;48.736;9.218;2023-04-07T12:09:26;6.00;;;2.47;;
29384;SDS011;16367;48.736;9.218;2023-04-07T12:11:30;8.52;;;3.67;;
29384;SDS011;16367;48.736;9.218;2023-04-07T12:13:34;11.00;;;4.70;;
29384;SDS011;16367;48.736;9.218;2023-04-07T12:15:37;11.20;;;5.15;;
29384;SDS011;16367;48.736;9.218;2023-04-07T12:17:43;10.80;;;4.70;;
29384;SDS011;16367;48.736;9.218;2023-04-07T12:19:47;11.27;;;3.72;;
29384;SDS011;16367;48.736;9.218;2023-04-07T12:21:49;8.63;;;4.22;;
29384;SDS011;16367;48.736;9.218;2023-04-07T12:23:52;12.65;;;5.25;;
29384;SDS011;16367;48.736;9.218;2023-04-07T12:25:56;12.60;;;5.38;;
29384;SDS011;16367;48.736;9.218;2023-04-07T12:27:59;12.40;;;5.90;;